Latest Weather Observations for Pearce

IDW60901

Issued at 4:11 pm WST Saturday 29 February 2020 (issued every 10 minutes, with the page automatically refreshed every 10 minutes)

About weather observations | Map of Perth area stations | Latest observations for Perth area | Other Formats
Station Details ID: 009053 Name: PEARCE RAAF Lat: -31.67 Lon: 116.02 Height: 40.0 m
Data from the previous 72 hours. | See also: Recent months at Pearce
Date/Time
WST
Temp
°C
App
Temp
°C
Dew
Point
°C
Rel
Hum
%
Delta-T
°C
Wind Press
QNH
hPa
Press
MSL
hPa
Rain since
9am
mm
Dir  Spd
km/h
Gust
km/h
Spd
kts
Gust
kts
29/04:00pm 26.2 23.7 16.2 54 6.2 WSW 24 32 13 17 1007.6 1007.4 0.0
29/03:30pm 26.1 23.9 16.9 57 5.7 WSW 24 32 13 17 1007.6 1007.4 0.0
29/03:00pm 27.1 24.8 15.8 50 6.9 WSW 22 30 12 16 1007.6 1007.4 0.0
29/02:30pm 26.1 22.6 15.5 52 6.4 SW 28 37 15 20 1007.7 1007.5 0.0
29/02:00pm 28.5 26.1 16.4 48 7.5 SW 24 33 13 18 1007.6 1007.4 0.0
29/01:30pm 28.0 25.3 15.6 46 7.6 WSW 24 43 13 23 1007.7 1007.5 0.0
29/01:00pm 28.2 26.2 15.5 46 7.8 W 20 32 11 17 1007.7 1007.5 0.0
29/12:30pm 28.1 26.3 16.1 48 7.4 W 20 28 11 15 1007.8 1007.6 0.0
29/12:00pm 28.2 26.2 15.5 46 7.8 W 20 33 11 18 1008.1 1007.9 0.0
29/11:30am 27.9 25.9 14.9 45 7.9 W 19 26 10 14 1008.3 1008.1 0.0
29/11:00am 27.1 24.9 14.5 46 7.6 WSW 19 28 10 15 1008.7 1008.5 0.0
29/10:30am 26.1 23.7 15.5 52 6.4 W 22 28 12 15 1008.8 1008.6 0.0
29/10:00am 25.4 23.8 16.5 58 5.5 WSW 20 28 11 15 1008.9 1008.7 0.0
29/09:30am 25.3 23.3 15.6 55 5.9 WSW 20 28 11 15 1008.9 1008.7 0.0
29/09:00am 24.9 23.9 16.6 60 5.1 WSW 17 22 9 12 1008.8 1008.6 0.0
29/08:30am 23.4 23.5 17.4 69 3.7 WSW 13 20 7 11 1009.0 1008.8 0.0
29/08:00am 23.0 23.9 18.5 76 2.8 W 11 17 6 9 1008.9 1008.7 0.0
29/07:30am 21.7 23.8 19.3 86 1.5 W 7 11 4 6 1008.7 1008.5 0.0
29/07:00am 20.9 22.9 19.2 90 1.1 WNW 7 11 4 6 1008.5 1008.3 0.0
29/06:30am 20.1 21.7 18.2 89 1.2 WNW 7 7 4 4 1008.1 1007.9 0.0
29/06:00am 20.3 21.9 18.2 88 1.3 WNW 7 9 4 5 1007.6 1007.4 0.0
29/05:30am 21.2 22.7 18.8 86 1.5 W 9 11 5 6 1007.4 1007.2 0.0
29/05:00am 21.7 23.3 19.1 85 1.7 WNW 9 13 5 7 1007.3 1007.1 0.0
29/04:30am 21.9 23.6 19.3 85 1.7 WNW 9 11 5 6 1007.2 1007.0 0.0
29/04:00am 22.0 24.2 19.5 86 1.6 WNW 7 11 4 6 1007.2 1007.0 0.0
29/03:57am 22.0 24.2 19.5 86 1.6 WNW 7 9 4 5 1007.2 1007.0 0.0
29/03:30am 22.1 24.6 19.8 87 1.5 WSW 6 9 3 5 1007.2 1007.0 0.0
29/03:00am 22.1 23.2 19.6 86 1.6 W 13 15 7 8 1007.2 1007.0 0.0
29/02:48am 22.4 24.7 19.9 86 1.6 W 7 9 4 5 1007.3 1007.1 0.0
29/02:30am 22.3 24.6 19.8 86 1.6 WSW 7 11 4 6 1007.4 1007.2 0.0
29/02:00am 22.4 24.9 20.3 88 1.4 WSW 7 11 4 6 1007.4 1007.2 0.0
29/01:30am 22.4 24.6 20.3 88 1.4 WSW 9 13 5 7 1007.5 1007.3 0.0
29/01:00am 22.4 24.3 20.5 89 1.2 WSW 11 15 6 8 1007.5 1007.3 0.0
29/12:30am 22.5 24.0 20.6 89 1.2 WSW 13 17 7 9 1007.7 1007.5 0.0
29/12:17am 22.5 24.4 20.6 89 1.2 WSW 11 15 6 8 1007.8 1007.6 0.0
29/12:00am 22.5 24.1 20.8 90 1.1 W 13 17 7 9 1007.8 1007.6 0.0
 
Date/Time
WST
Temp
°C
App
Temp
°C
Dew
Point
°C
Rel
Hum
%
Delta-T
°C
Wind Press
QNH
hPa
Press
MSL
hPa
Rain since
9am
mm
Dir  Spd
km/h
Gust
km/h
Spd
kts
Gust
kts
28/11:30pm 22.5 24.8 20.6 89 1.2 W 9 11 5 6 1007.9 1007.7 0.0
28/11:00pm 22.3 26.2 20.4 89 1.2 CALM 0 0 0 0 1008.0 1007.8 0.0
28/10:36pm 21.8 24.5 19.5 87 1.5 SSW 4 7 2 4 1008.1 1007.9 0.0
28/10:30pm 21.8 24.5 19.5 87 1.5 SSW 4 7 2 4 1008.1 1007.9 0.0
28/10:00pm 22.6 24.9 19.9 85 1.7 SSW 7 7 4 4 1008.2 1008.0 0.0
28/09:30pm 23.1 26.2 20.2 84 1.9 SSW 4 6 2 3 1008.2 1008.0 0.0
28/09:00pm 23.4 26.5 20.2 82 2.1 SSW 4 7 2 4 1008.5 1008.3 0.0
28/08:30pm 23.8 25.0 19.9 79 2.5 WSW 13 17 7 9 1008.4 1008.2 0.0
28/08:00pm 26.4 27.1 18.0 60 5.3 E 11 15 6 8 1008.1 1007.9 0.0
28/07:30pm 26.6 26.9 17.9 59 5.5 NNE 13 15 7 8 1007.9 1007.7 0.0
28/07:00pm 27.2 26.9 17.4 55 6.2 ENE 15 20 8 11 1007.4 1007.2 0.0
28/06:30pm 28.0 26.7 17.2 52 6.8 ENE 20 28 11 15 1007.1 1006.9 0.0
28/06:00pm 28.8 27.3 16.7 48 7.6 ENE 20 28 11 15 1007.0 1006.8 0.0
28/05:30pm 29.6 28.1 16.4 45 8.2 ENE 19 28 10 15 1006.6 1006.4 0.0
28/05:00pm 30.4 29.6 17.1 44 8.4 E 17 24 9 13 1006.4 1006.2 0.0
28/04:30pm 29.6 28.7 16.8 46 8.0 E 17 30 9 16 1006.1 1005.9 0.0
28/04:00pm 30.5 28.1 16.5 43 8.8 E 24 37 13 20 1005.8 1005.6 0.0
28/03:54pm 29.8 26.6 16.2 43 8.5 E 28 46 15 25 1005.8 1005.6 0.0
28/03:30pm 29.3 27.3 16.5 46 8.0 E 22 48 12 26 1006.1 1005.9 0.0
28/03:00pm 29.1 25.6 16.6 46 7.8 E 30 44 16 24 1006.3 1006.1 0.0
28/02:51pm 28.8 24.3 16.4 47 7.7 E 35 54 19 29 1006.4 1006.2 0.0
28/02:30pm 28.6 23.5 15.8 45 7.9 E 37 54 20 29 1005.9 1005.7 0.0
28/02:00pm 29.0 24.2 16.5 46 7.8 E 37 57 20 31 1005.8 1005.6 0.0
28/01:30pm 28.3 22.9 16.9 50 7.1 E 41 59 22 32 1005.8 1005.6 0.0
28/01:00pm 27.1 21.6 16.7 53 6.5 ESE 41 63 22 34 1005.1 1004.9 0.0
28/12:35pm 25.9 20.1 17.0 58 5.5 E 43 61 23 33 1006.1 1005.9 0.0
28/12:30pm 26.2 20.5 17.3 58 5.6 E 43 57 23 31 1006.4 1006.2 0.0
28/12:04pm 25.1 20.3 17.6 63 4.7 E 39 65 21 35 1007.5 1007.3 0.0
28/12:00pm 24.7 20.1 17.9 66 4.3 E 39 56 21 30 1007.8 1007.6 0.0
28/11:30am 24.4 19.8 17.1 63 4.5 E 37 61 20 33 1008.5 1008.3 0.0
28/11:00am 24.3 19.7 17.1 64 4.5 E 37 52 20 28 1008.6 1008.4 0.0
28/10:32am 25.2 21.1 16.4 58 5.4 E 33 52 18 28 1009.5 1009.3 0.0
28/10:30am 25.2 20.7 16.4 58 5.4 E 35 52 19 28 1009.5 1009.3 0.0
28/10:00am 25.3 21.5 16.7 59 5.3 E 32 54 17 29 1008.8 1008.6 0.0
28/09:51am 24.8 20.8 16.2 58 5.3 E 32 54 17 29 1009.0 1008.8 0.0
28/09:47am 24.8 20.8 16.2 58 5.3 E 32 44 17 24 1009.1 1008.9 0.0
28/09:30am 24.0 19.5 16.5 63 4.6 ESE 35 48 19 26 1007.1 1006.9 0.0
28/09:10am 23.5 19.4 16.5 65 4.3 E 33 57 18 31 1008.8 1008.6 0.0
28/09:00am 22.8 18.8 16.6 68 3.8 E 33 48 18 26 1009.6 1009.4 9.4
28/08:30am 24.7 20.5 15.6 57 5.5 E 32 50 17 27 1008.9 1008.7 9.2
28/08:00am 23.8 19.6 16.3 63 4.6 E 33 46 18 25 1008.1 1007.9 9.2
28/07:30am 23.4 19.0 16.7 66 4.1 E 35 57 19 31 1008.2 1008.0 8.8
28/07:10am 26.0 18.4 14.8 50 6.7 E 48 65 26 35 1007.4 1007.2 8.0
28/07:00am 26.0 20.1 14.8 50 6.8 E 39 63 21 34 1005.2 1005.0 8.0
28/06:30am 26.1 19.6 15.2 51 6.6 E 43 59 23 32 1005.5 1005.3 8.0
28/06:11am 26.1 20.4 15.2 51 6.6 E 39 65 21 35 1006.7 1006.5 8.0
28/06:00am 26.3 19.8 15.0 49 6.8 E 43 65 23 35 1005.9 1005.7 8.0
28/05:30am 26.5 19.4 14.9 49 7.0 E 46 67 25 36 1006.0 1005.8 8.0
28/05:00am 26.3 20.7 15.4 51 6.6 E 39 67 21 36 1006.5 1006.3 8.0
28/04:30am 26.1 20.2 15.8 53 6.3 E 41 61 22 33 1005.8 1005.6 8.0
28/04:07am 25.9 20.6 16.2 55 6.0 E 39 57 21 31 1005.8 1005.6 8.0
28/04:00am 25.8 20.2 16.4 56 5.8 E 41 57 22 31 1005.6 1005.4 8.0
28/03:30am 26.0 20.3 16.3 55 6.0 E 41 63 22 34 1005.6 1005.4 8.0
28/03:00am 26.3 20.6 16.3 54 6.2 E 41 59 22 32 1005.9 1005.7 8.0
28/02:30am 25.9 20.5 17.0 58 5.5 E 41 61 22 33 1006.1 1005.9 8.0
28/02:04am 25.5 20.2 17.2 60 5.2 E 41 59 22 32 1006.5 1006.3 8.0
28/02:00am 25.4 20.0 17.1 60 5.2 E 41 57 22 31 1006.7 1006.5 8.0
28/01:30am 25.3 19.0 17.0 60 5.2 E 46 65 25 35 1007.1 1006.9 8.0
28/01:08am 25.3 20.3 17.0 60 5.2 E 39 57 21 31 1007.7 1007.5 8.0
28/01:00am 25.1 19.6 16.8 60 5.1 E 41 57 22 31 1007.4 1007.2 8.0
28/12:30am 25.5 19.5 16.4 57 5.6 E 43 65 23 35 1007.2 1007.0 8.0
28/12:00am 25.9 20.1 15.9 54 6.1 ENE 41 65 22 35 1007.6 1007.4 8.0
 
Date/Time
WST
Temp
°C
App
Temp
°C
Dew
Point
°C
Rel
Hum
%
Delta-T
°C
Wind Press
QNH
hPa
Press
MSL
hPa
Rain since
9am
mm
Dir  Spd
km/h
Gust
km/h
Spd
kts
Gust
kts
27/11:30pm 26.4 20.4 15.4 50 6.7 ENE 41 61 22 33 1007.7 1007.5 8.0
27/11:00pm 26.5 20.9 15.5 50 6.7 ENE 39 59 21 32 1007.9 1007.7 8.0
27/10:32pm 26.4 20.8 15.4 50 6.7 ENE 39 57 21 31 1008.0 1007.8 8.0
27/10:30pm 26.3 20.7 15.4 51 6.6 ENE 39 54 21 29 1008.1 1007.9 8.0
27/10:06pm 26.2 20.6 15.6 52 6.5 ENE 39 57 21 31 1008.2 1008.0 8.0
27/10:00pm 26.1 20.2 15.8 53 6.3 ENE 41 57 22 31 1008.2 1008.0 8.0
27/09:30pm 25.8 20.2 16.4 56 5.8 ENE 41 61 22 33 1008.5 1008.3 8.0
27/09:00pm 25.9 20.3 16.5 56 5.8 ENE 41 63 22 34 1008.6 1008.4 8.0
27/08:34pm 25.8 21.0 16.6 56 5.7 ENE 37 65 20 35 1008.5 1008.3 8.0
27/08:30pm 25.7 20.9 16.5 56 5.7 ENE 37 52 20 28 1008.5 1008.3 8.0
27/08:05pm 25.7 20.6 16.8 58 5.5 ENE 39 57 21 31 1008.2 1008.0 8.0
27/08:00pm 25.7 20.6 16.8 58 5.5 ENE 39 54 21 29 1008.2 1008.0 8.0
27/07:42pm 26.0 21.3 16.8 57 5.7 ENE 37 63 20 34 1008.1 1007.9 8.0
27/07:30pm 25.8 21.1 16.9 58 5.5 ENE 37 52 20 28 1008.2 1008.0 8.0
27/07:00pm 25.7 20.7 17.1 59 5.4 E 39 57 21 31 1008.2 1008.0 8.0
27/06:30pm 26.1 20.5 16.6 55 5.9 E 41 65 22 35 1009.3 1009.1 8.0
27/06:09pm 26.6 22.0 16.2 52 6.4 E 35 56 19 30 1009.0 1008.8 8.0
27/06:00pm 26.6 22.5 16.5 54 6.3 ENE 33 48 18 26 1009.3 1009.1 8.0
27/05:33pm 26.1 22.3 17.2 58 5.6 E 33 54 18 29 1009.0 1008.8 8.0
27/05:30pm 25.9 22.1 17.3 59 5.4 E 33 48 18 26 1009.5 1009.3 8.0
27/05:00pm 25.8 20.9 17.4 59 5.3 E 39 61 21 33 1009.4 1009.2 8.0
27/04:39pm 25.1 21.2 17.8 64 4.6 E 35 54 19 29 1009.5 1009.3 8.0
27/04:30pm 24.7 21.6 18.4 68 4.0 E 32 44 17 24 1009.7 1009.5 8.0
27/04:00pm 23.2 20.4 18.3 74 3.1 E 30 41 16 22 1010.6 1010.4 7.8
27/03:30pm 25.1 21.9 17.3 62 4.9 E 30 48 16 26 1010.8 1010.6 5.6
27/03:00pm 24.6 19.5 17.8 66 4.3 ENE 41 59 22 32 1009.8 1009.6 5.6
27/02:30pm 23.6 18.5 17.8 70 3.6 ENE 41 63 22 34 1010.6 1010.4 5.2
27/02:00pm 23.4 18.2 18.3 73 3.2 ENE 43 57 23 31 1011.0 1010.8 4.8
27/01:30pm 22.8 19.8 18.6 77 2.6 NE 32 52 17 28 1011.8 1011.6 4.0
27/01:02pm 23.2 19.5 18.3 74 3.1 ENE 35 56 19 30 1011.2 1011.0 3.4
27/01:00pm 23.3 20.0 18.4 74 3.1 ENE 33 48 18 26 1011.5 1011.3 3.4
27/12:50pm 23.3 20.6 18.4 74 3.1 ENE 30 50 16 27 1011.5 1011.3 3.4
27/12:30pm 24.0 22.7 18.2 70 3.7 NE 22 35 12 19 1012.6 1012.4 3.2
27/12:00pm 22.8 23.6 19.0 79 2.4 ENE 13 22 7 12 1013.1 1012.9 3.2
27/11:30am 22.3 23.6 19.3 83 1.9 E 11 19 6 10 1013.6 1013.4 2.6
27/11:00am 22.3 20.9 18.9 81 2.2 ENE 24 35 13 19 1013.5 1013.3 2.2
27/10:30am 22.5 20.3 18.7 79 2.4 NE 28 44 15 24 1014.3 1014.1 1.6
27/10:03am 23.1 20.4 18.4 75 3.0 NE 30 52 16 28 1014.0 1013.8 1.2
27/10:00am 22.8 20.2 18.6 77 2.6 NE 30 43 16 23 1013.8 1013.6 1.2
27/09:30am 23.3 18.8 18.2 73 3.2 NE 39 65 21 35 1013.0 1012.8 0.4
27/09:00am 24.4 20.4 17.6 66 4.2 NE 35 57 19 31 1011.7 1011.5 2.2
27/08:55am 24.8 21.4 17.8 65 4.4 NE 32 57 17 31 1012.0 1011.8 2.2
27/08:30am 23.9 19.3 17.9 69 3.8 ENE 39 57 21 31 1010.2 1010.0 2.2
27/08:00am 23.5 18.7 18.4 73 3.2 ENE 41 70 22 38 1010.3 1010.1 2.2
27/07:38am 23.0 20.2 18.1 74 3.1 ENE 30 48 16 26 1010.3 1010.1 2.2
27/07:30am 23.2 19.0 18.1 73 3.2 ENE 37 52 20 28 1010.5 1010.3 2.2
27/07:02am 23.9 21.0 17.9 69 3.8 ENE 30 48 16 26 1011.3 1011.1 2.2
27/07:00am 24.0 20.7 18.0 69 3.8 ENE 32 48 17 26 1011.3 1011.1 2.2
27/06:30am 22.8 21.3 18.6 77 2.6 NNE 24 37 13 20 1012.1 1011.9 2.2
27/06:00am 22.4 19.4 18.6 79 2.4 ENE 32 50 17 27 1009.1 1008.9 2.2
27/05:30am 22.5 17.4 18.7 79 2.4 ENE 43 65 23 35 1009.9 1009.7 2.2
27/05:00am 22.4 18.9 18.8 80 2.3 ENE 35 54 19 29 1010.6 1010.4 2.2
27/04:49am 22.6 20.0 18.6 78 2.5 ENE 30 48 16 26 1011.2 1011.0 2.2
27/04:30am 22.9 20.5 18.2 75 2.9 ENE 28 39 15 21 1010.5 1010.3 2.2
27/04:00am 23.0 19.7 18.3 75 3.0 ENE 33 46 18 25 1010.4 1010.2 2.2
27/03:45am 22.6 19.5 18.4 77 2.6 ENE 32 50 17 27 1010.2 1010.0 2.2
27/03:30am 23.1 19.8 18.0 73 3.2 ENE 32 46 17 25 1010.9 1010.7 1.8
27/03:00am 22.5 18.8 18.3 77 2.6 ENE 35 46 19 25 1011.2 1011.0 1.8
27/02:30am 23.2 19.8 17.7 71 3.4 ENE 32 46 17 25 1011.6 1011.4 1.4
27/02:08am 23.4 20.2 18.1 72 3.3 E 32 52 17 28 1011.9 1011.7 1.4
27/02:00am 23.5 20.1 18.2 72 3.3 E 33 46 18 25 1011.4 1011.2 1.4
27/01:30am 23.5 20.4 18.4 73 3.2 ENE 32 46 17 25 1012.3 1012.1 1.4
27/01:23am 23.5 21.2 18.4 73 3.2 ENE 28 46 15 25 1012.3 1012.1 1.4
27/01:00am 23.9 23.1 18.5 72 3.4 E 20 32 11 17 1012.5 1012.3 1.4
27/12:30am 24.1 23.5 18.5 71 3.5 E 19 28 10 15 1012.6 1012.4 1.4
27/12:00am 24.3 22.9 18.7 71 3.6 E 24 37 13 20 1012.1 1011.9 1.2
 
Date/Time
WST
Temp
°C
App
Temp
°C
Dew
Point
°C
Rel
Hum
%
Delta-T
°C
Wind Press
QNH
hPa
Press
MSL
hPa
Rain since
9am
mm
Dir  Spd
km/h
Gust
km/h
Spd
kts
Gust
kts
26/11:30pm 24.0 24.1 19.1 74 3.1 ENE 17 28 9 15 1012.4 1012.2 1.2
26/11:00pm 23.7 23.8 19.2 76 2.9 SE 17 30 9 16 1011.9 1011.7 1.2
26/10:30pm 23.9 24.7 19.0 74 3.1 N 13 26 7 14 1012.0 1011.8 1.2
26/10:00pm 24.8 24.6 17.5 64 4.6 ENE 15 24 8 13 1011.6 1011.4 1.2
26/09:30pm 25.3 25.8 17.5 62 4.9 E 11 22 6 12 1011.2 1011.0 1.2
26/09:00pm 25.5 24.0 17.7 62 4.9 E 22 30 12 16 1010.7 1010.5 1.2
26/08:30pm 24.8 22.1 18.5 68 4.0 E 30 41 16 22 1010.7 1010.5 1.2
26/08:00pm 24.4 22.4 19.2 73 3.3 E 28 39 15 21 1011.5 1011.3 1.2
26/07:30pm 24.0 22.2 19.5 76 2.9 ENE 28 39 15 21 1012.1 1011.9 1.2
26/07:00pm 24.3 22.5 19.6 75 3.0 ENE 28 37 15 20 1012.3 1012.1 1.2
26/06:30pm 24.4 23.1 19.9 76 2.9 ENE 26 35 14 19 1013.0 1012.8 1.2
26/06:00pm 24.5 23.3 20.0 76 2.9 ENE 26 39 14 21 1012.9 1012.7 1.2
26/05:30pm 24.2 23.0 20.1 78 2.7 ENE 26 37 14 20 1012.8 1012.6 1.0
26/05:00pm 24.1 24.3 20.2 79 2.5 ENE 19 30 10 16 1013.5 1013.3 1.0
26/04:30pm 24.6 24.3 20.3 77 2.8 ENE 22 39 12 21 1013.5 1013.3 0.8

Latest Capital City Observations: Canberra | Sydney | Melbourne | Brisbane | Adelaide | Perth | Hobart | Darwin

Other formats

Comma delimited format used in spreadsheet applications
http://www.bom.gov.au/fwo/IDW60901/IDW60901.94612.axf

JavaScript Object Notation format (JSON) in row-major order
http://www.bom.gov.au/fwo/IDW60901/IDW60901.94612.json

Data quality

Most of these data are generated automatically and are frequently updated. Quality checks on data are not normally performed. It is possible for incorrect values to appear. Refer to information at About Latest Weather Observations and please check the disclaimer before using these data.